Latest Weather Observations for Nullarbor

IDS60801

Issued at 9:01 pm CST Wednesday 28 September 2016 (issued every 30 minutes, with the page automatically refreshed every 10 minutes)

About weather observations | Map of weather stations | Latest weather observations for SA | Other Formats
Station Details ID: 018106 Name: NULLARBOR Lat: -31.45 Lon: 130.90 Height: 64.0 m
Data from the previous 72 hours. | See also: Recent months at Nullarbor
Date/Time
CST
Temp
°C
App
Temp
°C
Dew
Point
°C
Rel
Hum
%
Delta-T
°C
Wind Press
QNH
hPa
Press
MSL
hPa
Rain since
9am
mm
Dir  Spd
km/h
Gust
km/h
Spd
kts
Gust
kts
28/09:00pm 6.8 -2.3 5.9 94 0.4 W 43 63 23 34 1008.7 1008.6 4.6
28/08:49pm 7.0 -1.8 5.6 91 0.6 WNW 41 59 22 32 1009.0 1008.9 3.2
28/08:36pm 7.3 -1.1 5.8 90 0.7 WNW 39 57 21 31 1008.3 1008.2 2.8
28/08:30pm 7.3 -1.4 6.1 92 0.5 WNW 41 54 22 29 1008.2 1008.1 2.8
28/08:04pm 7.1 -1.7 5.4 89 0.8 W 41 59 22 32 1008.0 1007.9 2.8
28/08:00pm 7.1 -2.1 5.3 88 0.8 W 43 59 23 32 1008.1 1008.0 2.8
28/07:42pm 6.9 -1.5 5.7 92 0.5 WNW 39 59 21 32 1008.1 1008.0 2.8
28/07:32pm 7.0 -2.5 5.0 87 0.9 WNW 44 63 24 34 1007.5 1007.4 2.6
28/07:30pm 7.0 -2.9 5.0 87 0.9 W 46 63 25 34 1007.5 1007.4 2.6
28/07:03pm 8.0 -1.2 5.6 85 1.1 WNW 43 61 23 33 1007.4 1007.3 1.4
28/07:02pm 8.2 -1.1 5.8 85 1.1 WNW 44 61 24 33 1007.5 1007.4 1.4
28/07:00pm 8.6 -0.8 5.2 79 1.5 WNW 44 61 24 33 1007.5 1007.4 1.0
28/06:30pm 8.7 -1.5 5.1 78 1.6 WNW 48 69 26 37 1006.7 1006.7 1.0
28/06:00pm 9.5 -0.4 4.7 72 2.2 W 46 69 25 37 1006.3 1006.3 1.0
28/05:50pm 9.4 -1.3 4.8 73 2.1 W 50 69 27 37 1006.1 1006.1 1.0
28/05:46pm 9.6 -1.5 4.6 71 2.2 W 52 69 28 37 1006.1 1006.1 1.0
28/05:31pm 9.2 -1.3 5.8 79 1.6 W 50 72 27 39 1006.0 1006.0 1.0
28/05:30pm 9.4 -1.1 5.6 77 1.7 W 50 72 27 39 1006.0 1006.0 1.0
28/05:07pm 8.8 -3.0 4.6 75 1.9 W 56 74 30 40 1005.6 1005.6 0.8
28/05:00pm 11.0 -1.0 3.5 60 3.3 W 56 78 30 42 1005.3 1005.3 0.8
28/04:30pm 12.0 -0.1 3.0 54 4.0 W 56 85 30 46 1004.8 1004.8 0.8
28/04:02pm 10.0 -1.0 5.0 71 2.3 W 52 76 28 41 1004.8 1004.8 0.6
28/04:00pm 9.9 -1.0 5.5 74 2.0 W 52 76 28 41 1004.8 1004.8 0.6
28/03:47pm 9.8 -2.7 5.8 76 1.8 W 61 87 33 47 1005.1 1005.1 0.6
28/03:30pm 13.1 1.1 4.0 54 4.2 W 56 76 30 41 1004.4 1004.4 0.6
28/03:02pm 12.1 1.1 4.8 61 3.3 W 52 70 28 38 1004.2 1004.2 0.4
28/03:00pm 11.8 0.8 4.8 62 3.2 W 52 67 28 36 1004.3 1004.3 0.4
28/02:31pm 11.3 0.5 6.2 71 2.4 WSW 52 70 28 38 1004.4 1004.4 0.4
28/02:30pm 11.2 0.1 6.3 72 2.3 WSW 54 70 29 38 1004.4 1004.4 0.4
28/02:00pm 12.3 0.8 6.1 66 2.9 W 56 80 30 43 1004.1 1004.1 0.4
28/01:43pm 11.2 -0.2 6.9 75 2.1 W 56 82 30 44 1003.9 1003.9 0.4
28/01:30pm 9.5 -2.0 6.9 84 1.2 W 57 85 31 46 1003.9 1003.9 0.4
28/01:20pm 9.4 -3.9 5.6 77 1.7 W 65 100 35 54 1003.6 1003.6 0.2
28/01:19pm 11.3 -1.5 6.6 73 2.2 W 63 100 34 54 1003.5 1003.5 0.2
28/01:09pm 13.9 2.1 5.8 58 3.9 W 57 82 31 44 1002.9 1002.8 0.2
28/01:00pm 12.3 0.8 6.4 67 2.8 W 56 76 30 41 1003.0 1003.0 0.2
28/12:50pm 11.1 -0.4 7.2 77 1.9 W 57 91 31 49 1002.9 1002.8 0.2
28/12:30pm 16.1 3.6 1.8 38 6.4 W 57 80 31 43 1002.1 1002.0 0.0
28/12:25pm 17.8 5.1 0.9 32 7.5 W 57 78 31 42 1002.1 1002.0 0.0
28/12:14pm 16.1 2.6 0.7 35 6.7 WNW 61 82 33 44 1002.1 1002.0 0.0
28/12:00pm 15.7 2.6 0.7 36 6.5 W 59 80 32 43 1002.1 1002.0 0.0
28/11:58am 16.0 2.8 0.2 34 6.8 WNW 59 80 32 43 1002.0 1001.9 0.0
28/11:57am 16.5 3.7 0.2 33 7.0 WNW 57 74 31 40 1001.9 1001.8 0.0
28/11:30am 17.0 3.5 0.6 33 7.2 WNW 61 82 33 44 1002.0 1001.9 0.0
28/11:02am 16.5 3.8 1.0 35 6.8 WNW 57 76 31 41 1002.0 1001.9 0.0
28/11:00am 16.2 3.7 1.1 36 6.6 W 56 76 30 41 1001.9 1001.8 0.0
28/10:55am 16.1 4.1 1.4 37 6.5 W 54 74 29 40 1001.9 1001.8 0.0
28/10:33am 16.0 4.3 3.1 42 5.9 WNW 54 74 29 40 1001.9 1001.8 0.0
28/10:30am 16.3 4.9 3.0 41 6.1 WNW 52 72 28 39 1001.9 1001.8 0.0
28/10:00am 14.9 4.1 4.3 49 4.9 W 50 70 27 38 1001.8 1001.7 0.0
28/09:53am 15.0 3.9 4.4 49 4.9 W 52 70 28 38 1001.7 1001.6 0.0
28/09:52am 15.0 3.9 4.7 50 4.8 W 52 67 28 36 1001.8 1001.7 0.0
28/09:30am 15.2 4.0 4.0 47 5.2 WNW 52 67 28 36 1001.6 1001.5 0.0
28/09:15am 15.2 5.6 4.6 49 5.0 WNW 44 65 24 35 1001.4 1001.3 0.0
28/09:00am 15.1 6.0 6.1 55 4.4 W 43 56 23 30 1001.2 1001.1 0.0
28/08:43am 15.4 6.8 6.4 55 4.4 W 41 61 22 33 1000.9 1000.8 0.0
28/08:30am 14.7 6.8 8.0 64 3.4 W 39 56 21 30 1000.8 1000.7 0.0
28/08:14am 15.0 6.6 7.3 60 3.8 W 41 59 22 32 1000.7 1000.6 0.0
28/08:00am 14.8 6.3 7.1 60 3.8 W 41 56 22 30 1000.5 1000.4 0.0
28/07:44am 14.4 7.9 8.1 66 3.2 W 32 50 17 27 1000.3 1000.2 0.0
28/07:30am 14.3 7.9 8.7 69 2.9 W 32 44 17 24 1000.1 1000.0 0.0
28/07:00am 14.1 7.6 8.9 71 2.6 WSW 33 44 18 24 1000.0 999.9 0.0
28/06:46am 14.1 5.7 8.9 71 2.6 WSW 43 65 23 35 999.8 999.7 0.0
28/06:31am 14.7 7.5 10.5 76 2.2 WSW 39 57 21 31 999.7 999.6 0.0
28/06:30am 14.7 8.0 10.9 78 2.0 WSW 37 54 20 29 999.7 999.6 0.0
28/06:16am 14.8 7.9 10.4 75 2.3 WSW 37 63 20 34 999.7 999.6 0.0
28/06:09am 15.4 8.2 9.1 66 3.2 WNW 37 63 20 34 999.7 999.6 0.0
28/06:08am 15.6 8.3 8.8 64 3.5 WNW 37 63 20 34 999.6 999.5 0.0
28/06:00am 15.8 7.7 3.3 43 5.8 WNW 35 56 19 30 998.9 998.8 0.0
28/05:58am 15.6 7.9 3.4 44 5.6 NW 33 56 18 30 999.0 998.9 0.0
28/05:54am 15.2 7.6 3.0 44 5.5 N 32 56 17 30 998.9 998.8 0.0
28/05:53am 15.1 7.9 3.0 44 5.5 N 30 56 16 30 997.9 997.8 0.0
28/05:30am 14.0 7.2 2.9 47 5.0 NNE 28 35 15 19 996.0 995.9 0.0
28/05:00am 13.0 6.9 2.8 50 4.5 N 24 30 13 16 996.9 996.8 0.0
28/04:30am 12.6 6.5 2.7 51 4.4 N 24 28 13 15 997.8 997.7 0.0
28/04:00am 12.9 6.8 2.7 50 4.5 N 24 30 13 16 998.6 998.5 0.0
28/03:30am 11.9 6.7 2.4 52 4.2 NNE 19 22 10 12 999.2 999.1 0.0
28/03:00am 12.9 7.5 2.5 49 4.6 NNE 20 22 11 12 999.9 999.8 0.0
28/02:30am 13.2 7.7 2.1 47 4.9 NNE 20 26 11 14 1000.7 1000.6 0.0
28/02:00am 13.7 8.2 2.0 45 5.1 NNE 20 24 11 13 1001.6 1001.5 0.0
28/01:30am 13.2 7.6 1.2 44 5.2 NNE 20 26 11 14 1002.6 1002.5 0.0
28/01:00am 12.3 6.8 0.4 44 5.0 NNE 19 20 10 11 1003.3 1003.3 0.0
28/12:30am 12.0 6.7 -0.5 42 5.1 NE 17 19 9 10 1004.0 1004.0 0.0
28/12:00am 13.3 7.6 -0.7 38 5.8 NE 19 22 10 12 1004.7 1004.7 0.0
 
Date/Time
CST
Temp
°C
App
Temp
°C
Dew
Point
°C
Rel
Hum
%
Delta-T
°C
Wind Press
QNH
hPa
Press
MSL
hPa
Rain since
9am
mm
Dir  Spd
km/h
Gust
km/h
Spd
kts
Gust
kts
27/11:30pm 12.1 6.8 -0.4 42 5.1 NE 17 19 9 10 1005.5 1005.5 0.0
27/11:00pm 12.1 6.9 0.2 44 4.9 NE 17 20 9 11 1006.1 1006.1 0.0
27/10:30pm 12.0 6.7 1.9 50 4.4 ENE 19 20 10 11 1006.5 1006.5 0.0
27/10:00pm 11.6 6.9 3.1 56 3.7 ENE 17 19 9 10 1007.2 1007.1 0.0
27/09:30pm 12.8 8.7 4.5 57 3.8 E 15 19 8 10 1007.8 1007.7 0.0
27/09:00pm 13.9 9.9 6.7 62 3.5 E 17 20 9 11 1008.1 1008.0 0.0
27/08:30pm 14.5 10.2 7.1 61 3.6 ESE 19 26 10 14 1008.6 1008.5 0.0
27/08:00pm 15.1 10.6 6.1 55 4.3 E 19 26 10 14 1008.9 1008.8 0.0
27/07:30pm 15.5 10.7 5.7 52 4.7 ESE 20 26 11 14 1009.1 1009.0 0.0
27/07:00pm 16.5 11.4 4.2 44 5.8 ESE 20 26 11 14 1009.3 1009.2 0.0
27/06:30pm 18.1 12.7 2.4 35 7.2 ESE 20 28 11 15 1009.2 1009.1 0.0
27/06:00pm 19.9 14.3 3.2 33 7.9 ESE 22 30 12 16 1009.3 1009.2 0.0
27/05:30pm 21.5 15.3 2.2 28 9.1 ESE 24 32 13 17 1009.4 1009.3 0.0
27/05:00pm 24.1 18.1 -1.7 18 11.4 NNE 20 32 11 17 1009.7 1009.6 0.0
27/04:30pm 24.7 18.9 -1.2 18 11.7 N 19 28 10 15 1010.1 1010.0 0.0
27/04:00pm 24.5 19.1 -1.3 18 11.6 NNE 17 28 9 15 1010.6 1010.5 0.0
27/03:30pm 24.3 18.3 -1.5 18 11.5 N 20 30 11 16 1011.1 1011.0 0.0
27/03:00pm 24.9 19.2 -1.0 18 11.7 NE 19 28 10 15 1011.5 1011.4 0.0
27/02:30pm 23.7 17.9 -1.3 19 11.1 NNE 19 33 10 18 1012.3 1012.2 0.0
27/02:00pm 23.6 18.2 -1.3 19 11.1 NE 17 32 9 17 1012.9 1012.8 0.0
27/01:30pm 23.3 18.3 -0.9 20 10.8 NW 15 24 8 13 1013.7 1013.6 0.0
27/01:00pm 22.7 18.1 -0.7 21 10.5 N 13 20 7 11 1014.4 1014.3 0.0
27/12:30pm 22.7 18.3 0.5 23 10.1 NNE 13 24 7 13 1015.1 1015.0 0.0
27/12:00pm 22.6 17.8 0.4 23 10.1 NNE 15 24 8 13 1015.6 1015.5 0.0
27/11:30am 21.6 17.0 1.3 26 9.3 NNW 15 24 8 13 1016.2 1016.2 0.0
27/11:00am 20.8 15.9 2.1 29 8.7 N 17 26 9 14 1016.6 1016.6 0.0
27/10:30am 19.7 14.4 3.0 33 7.8 N 20 28 11 15 1017.0 1017.0 0.0
27/10:00am 18.2 12.9 2.9 36 7.1 N 20 28 11 15 1017.3 1017.3 0.0
27/09:30am 16.7 11.5 3.7 42 6.0 N 20 24 11 13 1017.6 1017.6 0.0
27/09:00am 15.0 9.9 4.1 48 5.0 N 20 26 11 14 1017.7 1017.7 0.0
27/08:30am 12.6 7.5 4.1 56 3.8 N 20 26 11 14 1017.8 1017.8 0.0
27/08:00am 10.5 5.5 3.8 63 3.0 N 19 24 10 13 1017.6 1017.6 0.0
27/07:30am 7.8 3.2 3.5 74 1.8 N 17 20 9 11 1017.3 1017.3 0.0
27/07:00am 4.7 0.2 2.1 83 1.0 N 15 19 8 10 1017.2 1017.2 0.0
27/06:30am 4.0 -0.9 1.9 86 0.8 N 17 19 9 10 1017.1 1017.1 0.0
27/06:00am 3.9 -0.6 1.9 87 0.8 N 15 17 8 9 1017.0 1017.0 0.0
27/05:30am 3.2 -1.8 1.6 89 0.6 N 17 19 9 10 1016.8 1016.8 0.0
27/05:00am 3.2 -1.4 1.7 90 0.6 N 15 17 8 9 1016.6 1016.6 0.0
27/04:30am 3.0 -2.0 1.4 89 0.6 NNE 17 17 9 9 1016.5 1016.5 0.0
27/04:00am 3.4 -1.6 1.6 88 0.7 N 17 19 9 10 1016.6 1016.6 0.0
27/03:30am 3.0 -2.0 1.1 87 0.7 N 17 19 9 10 1016.9 1016.9 0.0
27/03:00am 3.6 -1.4 1.6 87 0.8 N 17 17 9 9 1017.1 1017.1 0.0
27/02:30am 4.0 -0.9 2.0 87 0.8 N 17 19 9 10 1017.4 1017.4 0.0
27/02:00am 3.5 -1.1 1.5 87 0.8 N 15 19 8 10 1017.7 1017.7 0.0
27/01:30am 4.4 0.3 2.1 85 0.9 N 13 15 7 8 1018.0 1018.0 0.0
27/01:00am 4.1 -0.4 2.0 86 0.8 NNE 15 17 8 9 1018.1 1018.1 0.0
27/12:30am 5.2 2.2 2.0 80 1.3 N 7 9 4 5 1018.3 1018.3 0.0
27/12:00am 5.5 2.7 3.0 84 1.0 NNE 7 13 4 7 1018.4 1018.4 0.0
 
Date/Time
CST
Temp
°C
App
Temp
°C
Dew
Point
°C
Rel
Hum
%
Delta-T
°C
Wind Press
QNH
hPa
Press
MSL
hPa
Rain since
9am
mm
Dir  Spd
km/h
Gust
km/h
Spd
kts
Gust
kts
26/11:30pm 6.6 5.2 3.4 80 1.3 CALM 0 0 0 0 1018.5 1018.5 0.0
26/11:00pm 7.0 4.8 3.3 77 1.6 SSE 4 7 2 4 1018.6 1018.6 0.0
26/10:30pm 7.0 3.8 3.3 77 1.6 SSE 9 11 5 6 1018.6 1018.6 0.0
26/10:00pm 7.9 4.9 4.3 78 1.6 SE 9 11 5 6 1018.5 1018.5 0.0
26/09:30pm 7.2 4.0 3.3 76 1.6 ESE 9 9 5 5 1018.5 1018.5 0.0
26/09:00pm 7.8 4.6 2.9 71 2.1 SE 9 11 5 6 1018.6 1018.6 0.0
26/08:30pm 8.7 5.2 3.7 71 2.2 SE 11 11 6 6 1018.3 1018.3 0.0
26/08:00pm 9.2 5.7 3.6 68 2.4 SE 11 15 6 8 1018.1 1018.1 0.0
26/07:30pm 10.1 7.0 3.8 65 2.8 SE 9 11 5 6 1017.8 1017.8 0.0
26/07:00pm 11.8 7.4 4.5 61 3.3 S 17 20 9 11 1017.5 1017.5 0.0
26/06:30pm 12.8 8.0 4.5 57 3.8 S 19 24 10 13 1017.3 1017.3 0.0
26/06:00pm 13.8 8.7 4.1 52 4.4 S 20 26 11 14 1017.1 1017.1 0.0
26/05:30pm 14.7 9.6 4.1 49 4.9 S 20 28 11 15 1016.9 1016.9 0.0
26/05:00pm 14.9 9.0 4.0 48 5.0 SSW 24 33 13 18 1017.1 1017.1 0.0
26/04:30pm 15.6 10.2 4.6 48 5.2 SSW 22 32 12 17 1016.9 1016.9 0.0
26/04:00pm 16.2 10.8 4.6 46 5.5 SSW 22 33 12 18 1016.8 1016.8 0.0
26/03:30pm 15.9 10.3 5.2 49 5.1 SW 24 33 13 18 1016.8 1016.8 0.0
26/03:00pm 17.2 12.0 5.5 46 5.7 SSW 22 32 12 17 1016.6 1016.6 0.0
26/02:30pm 16.4 10.7 5.1 47 5.4 SSW 24 33 13 18 1016.9 1016.9 0.0
26/02:00pm 16.7 12.0 5.9 49 5.3 SW 20 30 11 16 1017.3 1017.3 0.0
26/01:30pm 16.7 11.5 5.3 47 5.5 SSW 22 32 12 17 1017.3 1017.3 0.0
26/01:00pm 16.5 11.7 5.5 48 5.3 SSW 20 32 11 17 1017.5 1017.5 0.0
26/12:30pm 16.0 11.3 5.3 49 5.1 SSW 19 26 10 14 1017.7 1017.7 0.0
26/12:00pm 16.1 10.4 5.1 48 5.2 SSW 24 35 13 19 1018.0 1018.0 0.0
26/11:30am 16.5 10.5 5.5 48 5.3 SSW 26 35 14 19 1018.1 1018.1 0.0
26/11:00am 15.5 10.8 6.0 53 4.6 SSW 20 28 11 15 1018.1 1018.1 0.0
26/10:30am 16.1 11.3 5.7 50 5.0 SSW 20 30 11 16 1018.0 1018.0 0.0
26/10:00am 15.3 10.5 5.8 53 4.6 SSW 20 30 11 16 1018.0 1018.0 0.0
26/09:30am 14.9 9.4 6.0 55 4.3 SW 24 33 13 18 1017.9 1017.9 0.0
26/09:00am 14.7 9.1 5.2 53 4.5 SW 24 32 13 17 1017.6 1017.6 0.0
26/08:30am 14.1 8.0 6.7 61 3.6 SW 28 35 15 19 1017.2 1017.2 0.0
26/08:00am 13.5 8.3 7.1 65 3.1 SSW 24 30 13 16 1017.0 1017.0 0.0
26/07:30am 12.2 9.1 7.3 72 2.4 SSW 13 17 7 9 1016.7 1016.7 0.0
26/07:00am 10.9 7.2 8.0 82 1.4 SSW 17 20 9 11 1016.4 1016.4 0.0
26/06:30am 10.4 7.0 7.8 84 1.3 SSW 15 20 8 11 1016.0 1015.9 0.0
26/06:00am 11.0 7.2 7.5 79 1.7 SSW 17 22 9 12 1015.6 1015.5 0.0
26/05:30am 11.7 7.0 7.8 77 1.9 SSW 22 28 12 15 1015.2 1015.1 0.0
26/05:00am 12.2 7.0 8.9 80 1.7 SSW 26 37 14 20 1014.9 1014.8 0.0
26/04:30am 12.3 6.7 8.8 79 1.8 SSW 28 37 15 20 1014.7 1014.6 0.0
26/04:00am 12.9 7.5 9.4 79 1.8 SSW 28 39 15 21 1014.4 1014.3 0.0
26/03:30am 13.0 7.8 10.2 83 1.4 SSW 28 35 15 19 1014.4 1014.3 0.0
26/03:00am 13.0 8.1 9.8 81 1.6 SSW 26 35 14 19 1014.3 1014.2 0.0
26/02:30am 13.3 7.8 9.2 76 2.1 SSW 28 39 15 21 1014.3 1014.2 0.0
26/02:00am 13.8 7.3 8.8 72 2.5 SSW 33 44 18 24 1013.9 1013.8 0.0
26/01:42am 14.1 8.1 10.1 77 2.1 SSW 32 48 17 26 1013.7 1013.6 0.0
26/01:30am 13.3 8.9 7.5 68 2.8 SW 20 30 11 16 1013.6 1013.5 0.0
26/01:00am 12.9 8.4 -0.4 40 5.5 WNW 13 17 7 9 1013.3 1013.2 0.0
26/12:40am 12.8 7.0 -0.1 41 5.3 NW 20 46 11 25 1013.1 1013.0 0.0
26/12:30am 11.3 7.2 0.1 46 4.6 NNE 11 13 6 7 1012.3 1012.2 0.0
26/12:00am 11.4 6.6 0.2 46 4.6 NE 15 17 8 9 1012.0 1011.9 0.0
 
Date/Time
CST
Temp
°C
App
Temp
°C
Dew
Point
°C
Rel
Hum
%
Delta-T
°C
Wind Press
QNH
hPa
Press
MSL
hPa
Rain since
9am
mm
Dir  Spd
km/h
Gust
km/h
Spd
kts
Gust
kts
25/11:30pm 13.7 8.9 0.0 39 5.7 NE 15 20 8 11 1012.0 1011.9 0.0
25/11:00pm 13.2 8.0 0.3 41 5.4 NE 17 20 9 11 1012.0 1011.9 0.0
25/10:30pm 12.8 7.7 0.9 44 5.0 NE 17 20 9 11 1012.1 1012.0 0.0
25/10:00pm 13.4 8.3 0.8 42 5.3 NE 17 20 9 11 1012.3 1012.2 0.0
25/09:30pm 12.8 7.9 1.8 47 4.8 NE 17 19 9 10 1012.3 1012.2 0.0

Other Formats:

Comma delimited format used in spreadsheet applications
http://www.bom.gov.au/fwo/IDS60801/IDS60801.94651.axf

JavaScript Object Notation format (JSON) in row-major order
http://www.bom.gov.au/fwo/IDS60801/IDS60801.94651.json